Leyden, New York
Current Conditions -  °F | °C
As of 5:53 PM on Monday 20 Oct 2014 (Local Time) from KRME Reporting Station
Overcast Overcast  
Wind Chill: 51°   Ceiling: 7500
Heat Index: 51°   Visibility: 10mi
Dew Point: 41°   Wind: 3mph
Humidity: 68%   Direction: 90°E
Pressure: 29.91"   Gusts: NA
Location:  43.6044°N, 75.2344°W
Report Text: KRME 202153Z 09003KT 10SM SCT050 OVC075 11/05 A2991 RMK AO2 SLP130 T01060050
Loading
Personal Weather Stations






























Interactive Weather Map
Tropical Storm Tracking
New forecast layout! Learn more

10-Day Weather Forecast

Advertisements
Track Severe Weather on mobile